createdAt,value
2022-08-17T00:01:51.504Z,99561.94
2022-08-17T00:04:19.786Z,99554.09
2022-08-17T00:06:49.433Z,99555.75
2022-08-17T00:09:18.814Z,99552.97
2022-08-17T00:12:34.650Z,99555.56
2022-08-17T00:14:34.856Z,99559.13
2022-08-17T00:17:01.324Z,99558.19
2022-08-17T00:19:27.760Z,99560.00
2022-08-17T00:22:32.472Z,99560.09
2022-08-17T00:24:44.184Z,99561.75
2022-08-17T00:27:10.597Z,99559.56
2022-08-17T00:29:37.054Z,99553.47
2022-08-17T00:33:14.907Z,99562.88
2022-08-17T00:34:50.689Z,99555.44
2022-08-17T00:37:17.127Z,99550.31
2022-08-17T00:39:44.135Z,99563.84
2022-08-17T00:42:16.103Z,99558.88
2022-08-17T00:44:42.579Z,99558.09
2022-08-17T00:47:09.081Z,99553.13
2022-08-17T00:49:35.491Z,99550.25
2022-08-17T00:52:11.838Z,99558.66
2022-08-17T00:54:42.374Z,99554.66
2022-08-17T00:57:31.254Z,99553.28
2022-08-17T01:00:12.013Z,99553.22
2022-08-17T01:02:43.183Z,99549.38
2022-08-17T01:05:19.835Z,99545.13
2022-08-17T01:07:50.644Z,99549.91
2022-08-17T01:10:58.842Z,99547.25
2022-08-17T01:13:10.722Z,99547.41
2022-08-17T01:15:41.345Z,99546.47
2022-08-17T01:18:13.740Z,99544.59
2022-08-17T01:20:48.324Z,99532.66
2022-08-17T01:23:20.451Z,99535.91
2022-08-17T01:25:52.694Z,99532.56
2022-08-17T01:28:33.656Z,99546.47
2022-08-17T01:31:08.080Z,99541.34
2022-08-17T01:33:35.182Z,99540.66
2022-08-17T01:36:02.055Z,99540.16
2022-08-17T01:38:31.657Z,99545.56
2022-08-17T01:41:06.471Z,99547.69
2022-08-17T01:43:39.592Z,99553.09
2022-08-17T01:46:06.242Z,99558.38
2022-08-17T01:48:35.211Z,99558.94
2022-08-17T01:51:01.934Z,99555.16
2022-08-17T01:53:34.191Z,99560.19
2022-08-17T01:56:10.704Z,99556.47
2022-08-17T01:58:39.434Z,99565.25
2022-08-17T02:01:06.612Z,99562.22
2022-08-17T02:03:35.284Z,99561.16
2022-08-17T02:06:02.482Z,99555.31
2022-08-17T02:08:38.653Z,99548.81
2022-08-17T02:11:11.629Z,99547.75
2022-08-17T02:13:39.090Z,99551.63
2022-08-17T02:16:06.180Z,99554.56
2022-08-17T02:18:33.003Z,99546.78
2022-08-17T02:20:59.946Z,99542.78
2022-08-17T02:23:29.212Z,99549.56
2022-08-17T02:25:59.007Z,99550.25
2022-08-17T02:28:26.070Z,99544.84
2022-08-17T02:31:00.859Z,99538.50
2022-08-17T02:33:42.048Z,99539.84
2022-08-17T02:36:10.383Z,99542.09
2022-08-17T02:38:38.204Z,99533.22
2022-08-17T02:41:05.116Z,99540.00
2022-08-17T02:43:31.844Z,99541.84
2022-08-17T02:45:58.352Z,99542.78
2022-08-17T02:48:28.168Z,99546.09
2022-08-17T02:50:57.996Z,99546.09
2022-08-17T02:53:24.496Z,99544.16
2022-08-17T02:55:52.776Z,99534.91
2022-08-17T02:58:34.999Z,99539.88
2022-08-17T03:01:07.083Z,99553.03
2022-08-17T03:03:34.822Z,99567.59
2022-08-17T03:06:02.094Z,99599.25
2022-08-17T03:08:28.936Z,99625.53
2022-08-17T03:10:55.596Z,99630.13
2022-08-17T03:13:22.407Z,99627.75
2022-08-17T03:15:49.459Z,99612.84
2022-08-17T03:18:25.286Z,99608.91
2022-08-17T03:20:55.772Z,99627.53
2022-08-17T03:23:23.777Z,99621.88
2022-08-17T03:25:53.017Z,99638.56
2022-08-17T03:28:20.510Z,99636.06
2022-08-17T03:30:47.072Z,99637.34
2022-08-17T03:33:14.651Z,99641.03
2022-08-17T03:35:41.717Z,99650.22
2022-08-17T03:38:10.197Z,99651.94
2022-08-17T03:40:56.909Z,99642.31
2022-08-17T03:43:24.158Z,99639.84
2022-08-17T03:46:27.363Z,99639.53
2022-08-17T03:49:14.972Z,99639.84
2022-08-17T03:51:59.897Z,99641.50
2022-08-17T03:54:44.694Z,99642.06
2022-08-17T03:57:12.507Z,99644.69
2022-08-17T03:59:39.392Z,99630.38
2022-08-17T04:02:19.971Z,99628.97
2022-08-17T04:04:46.881Z,99644.13
2022-08-17T04:07:13.512Z,99639.13
2022-08-17T04:09:40.068Z,99646.50
2022-08-17T04:12:06.699Z,99648.59
2022-08-17T04:14:49.491Z,99643.03
2022-08-17T04:17:21.600Z,99657.88
2022-08-17T04:19:48.045Z,99654.13
2022-08-17T04:22:30.732Z,99657.41
2022-08-17T04:25:13.740Z,99650.72
2022-08-17T04:27:40.153Z,99655.16
2022-08-17T04:30:07.430Z,99666.78
2022-08-17T04:33:02.298Z,99664.81
2022-08-17T04:35:37.913Z,99658.16
2022-08-17T04:38:05.039Z,99661.19
2022-08-17T04:40:50.720Z,99668.53
2022-08-17T04:43:22.060Z,99668.38
2022-08-17T04:45:56.352Z,99665.19
2022-08-17T04:48:36.467Z,99668.44
2022-08-17T04:51:09.884Z,99667.34
2022-08-17T04:53:37.643Z,99667.00
2022-08-17T04:56:04.421Z,99671.16
2022-08-17T04:58:30.877Z,99671.59
2022-08-17T05:00:57.574Z,99671.31
2022-08-17T05:03:24.130Z,99679.88
2022-08-17T05:05:50.767Z,99678.09
2022-08-17T05:08:19.501Z,99673.91
2022-08-17T05:10:47.248Z,99671.88
2022-08-17T05:13:23.502Z,99670.63
2022-08-17T05:15:54.865Z,99665.44
2022-08-17T05:18:21.842Z,99656.78
2022-08-17T05:20:52.367Z,99664.63
2022-08-17T05:23:20.810Z,99669.50
2022-08-17T05:25:50.413Z,99674.06
2022-08-17T05:28:19.599Z,99669.38
2022-08-17T05:30:51.947Z,99667.72
2022-08-17T05:33:21.760Z,99668.75
2022-08-17T05:35:50.383Z,99662.91
2022-08-17T05:38:19.939Z,99667.78
2022-08-17T05:40:47.010Z,99661.97
2022-08-17T05:43:17.090Z,99656.69
2022-08-17T05:46:07.844Z,99664.94
2022-08-17T05:48:42.129Z,99675.75
2022-08-17T05:51:23.721Z,99678.25
2022-08-17T05:54:02.471Z,99676.53
2022-08-17T05:56:50.831Z,99679.06
2022-08-17T05:59:53.956Z,99661.72
2022-08-17T06:02:42.064Z,99652.66
2022-08-17T06:05:29.631Z,99638.75
2022-08-17T06:08:34.086Z,99657.03
2022-08-17T06:11:22.844Z,99682.34
2022-08-17T06:14:11.546Z,99678.56
2022-08-17T06:16:43.573Z,99685.53
2022-08-17T06:19:27.738Z,99694.53
2022-08-17T06:21:54.985Z,99685.22
2022-08-17T06:24:35.134Z,99689.38
2022-08-17T06:27:12.077Z,99691.34
2022-08-17T06:29:48.805Z,99693.38
2022-08-17T06:32:16.561Z,99687.34
2022-08-17T06:34:46.942Z,99682.66
2022-08-17T06:37:38.124Z,99688.19
2022-08-17T06:40:37.268Z,99672.47
2022-08-17T06:43:34.827Z,99674.81
2022-08-17T06:46:14.337Z,99668.06
2022-08-17T06:48:47.563Z,99678.81
2022-08-17T06:51:29.927Z,99689.41
2022-08-17T06:54:05.438Z,99674.19
2022-08-17T06:56:54.602Z,99682.06
2022-08-17T06:59:56.291Z,99686.03
2022-08-17T07:02:56.954Z,99685.94
2022-08-17T07:05:38.771Z,99679.47
2022-08-17T07:08:27.698Z,99679.09
2022-08-17T07:11:01.354Z,99671.31
2022-08-17T07:13:29.568Z,99669.59
2022-08-17T07:16:14.957Z,99668.38
2022-08-17T07:18:41.762Z,99676.69
2022-08-17T07:21:19.203Z,99676.63
2022-08-17T07:24:29.683Z,99673.19
2022-08-17T07:27:08.401Z,99680.44
2022-08-17T07:29:45.225Z,99689.34
2022-08-17T07:32:18.351Z,99679.16
2022-08-17T07:35:02.596Z,99685.13
2022-08-17T07:37:31.869Z,99680.41
2022-08-17T07:40:14.836Z,99672.91
2022-08-17T07:42:46.591Z,99671.69
2022-08-17T07:45:34.643Z,99675.59
2022-08-17T07:48:19.678Z,99687.38
2022-08-17T07:50:49.561Z,99685.97
2022-08-17T07:53:22.147Z,99684.09
2022-08-17T07:55:50.210Z,99686.97
2022-08-17T07:58:18.791Z,99688.88
2022-08-17T08:00:46.658Z,99699.47
2022-08-17T08:03:24.659Z,99692.03
2022-08-17T08:05:56.665Z,99696.50
2022-08-17T08:08:32.343Z,99693.19
2022-08-17T08:11:30.225Z,99701.47
2022-08-17T08:14:20.509Z,99693.75
2022-08-17T08:17:09.205Z,99715.09
2022-08-17T08:19:36.218Z,99709.72
2022-08-17T08:22:11.314Z,99698.16
2022-08-17T08:24:46.946Z,99683.94
2022-08-17T08:27:43.899Z,99690.28
2022-08-17T08:30:17.046Z,99682.13
2022-08-17T08:33:04.136Z,99664.13
2022-08-17T08:35:30.961Z,99660.06
2022-08-17T08:38:34.430Z,99650.53
2022-08-17T08:41:00.850Z,99664.72
2022-08-17T08:43:56.226Z,99665.09
2022-08-17T08:46:50.343Z,99661.53
2022-08-17T08:50:03.404Z,99667.69
2022-08-17T08:52:32.206Z,99681.00
2022-08-17T08:55:10.894Z,99695.06
2022-08-17T08:57:43.938Z,99714.78
2022-08-17T09:00:22.987Z,99709.28
2022-08-17T09:03:31.719Z,99705.81
2022-08-17T09:06:32.602Z,99715.66
2022-08-17T09:09:07.019Z,99716.50
2022-08-17T09:12:01.474Z,99747.41
2022-08-17T09:14:46.917Z,99751.25
2022-08-17T09:17:18.389Z,99736.91
2022-08-17T09:19:52.792Z,99731.31
2022-08-17T09:22:33.305Z,99716.69
2022-08-17T09:25:26.221Z,99697.97
2022-08-17T09:28:00.772Z,99708.47
2022-08-17T09:30:36.292Z,99717.59
2022-08-17T09:33:08.374Z,99721.63
2022-08-17T09:35:42.323Z,99737.53
2022-08-17T09:38:08.761Z,99738.31
2022-08-17T09:40:49.744Z,99736.19
2022-08-17T09:43:27.615Z,99758.69
2022-08-17T09:46:01.790Z,99796.56
2022-08-17T09:48:38.991Z,99802.28
2022-08-17T09:51:24.366Z,99802.03
2022-08-17T09:53:51.344Z,99817.50
2022-08-17T09:56:31.585Z,99831.41
2022-08-17T09:59:17.117Z,99836.75
2022-08-17T10:01:51.708Z,99839.41
2022-08-17T10:04:29.317Z,99830.91
2022-08-17T10:07:18.877Z,99838.41
2022-08-17T10:10:03.359Z,99844.97
2022-08-17T10:12:47.332Z,99858.69
2022-08-17T10:15:33.426Z,99860.03
2022-08-17T10:18:31.886Z,99855.97
2022-08-17T10:21:43.206Z,99862.44
2022-08-17T10:25:02.116Z,99874.91
2022-08-17T10:27:41.198Z,99879.38
2022-08-17T10:30:10.438Z,99878.25
2022-08-17T10:32:45.243Z,99873.50
2022-08-17T10:35:41.284Z,99871.75
2022-08-17T10:38:37.042Z,99883.13
2022-08-17T10:41:03.469Z,99880.38
2022-08-17T10:43:38.868Z,99881.00
2022-08-17T10:46:30.813Z,99875.00
2022-08-17T10:49:20.935Z,99863.22
2022-08-17T10:51:58.781Z,99865.28
2022-08-17T10:54:25.125Z,99860.03
2022-08-17T10:56:56.826Z,99852.38
2022-08-17T10:59:53.953Z,99869.03
2022-08-17T11:02:39.738Z,99873.44
2022-08-17T11:05:30.393Z,99858.97
2022-08-17T11:08:01.606Z,99862.28
2022-08-17T11:11:00.098Z,99859.84
2022-08-17T11:13:38.391Z,99857.72
2022-08-17T11:16:21.891Z,99862.16
2022-08-17T11:19:22.617Z,99853.66
2022-08-17T11:22:19.810Z,99858.03
2022-08-17T11:24:51.270Z,99861.22
2022-08-17T11:27:33.109Z,99865.78
2022-08-17T11:30:03.107Z,99854.13
2022-08-17T11:32:53.003Z,99846.88
2022-08-17T11:35:21.435Z,99844.19
2022-08-17T11:38:29.341Z,99847.28
2022-08-17T11:41:05.367Z,99837.28
2022-08-17T11:43:53.581Z,99843.09
2022-08-17T11:46:51.814Z,99829.91
2022-08-17T11:49:46.718Z,99815.47
2022-08-17T11:52:38.084Z,99808.34
2022-08-17T11:55:31.779Z,99817.97
2022-08-17T11:58:00.154Z,99798.72
2022-08-17T12:00:44.612Z,99783.13
2022-08-17T12:03:32.952Z,99762.72
2022-08-17T12:06:07.048Z,99751.22
2022-08-17T12:08:38.476Z,99757.88
2022-08-17T12:11:12.452Z,99762.19
2022-08-17T12:13:47.558Z,99766.34
2022-08-17T12:16:16.782Z,99757.22
2022-08-17T12:18:52.483Z,99762.22
2022-08-17T12:21:37.416Z,99781.13
2022-08-17T12:24:17.392Z,99789.28
2022-08-17T12:26:52.471Z,99796.94
2022-08-17T12:29:35.448Z,99806.88
2022-08-17T12:32:06.977Z,99810.38
2022-08-17T12:34:36.215Z,99808.88
2022-08-17T12:37:07.510Z,99797.94
2022-08-17T12:39:34.251Z,99798.41
2022-08-17T12:42:02.639Z,99807.19
2022-08-17T12:44:34.886Z,99794.00
2022-08-17T12:47:22.633Z,99783.25
2022-08-17T12:49:54.886Z,99790.75
2022-08-17T12:52:28.946Z,99787.00
2022-08-17T12:55:02.394Z,99783.41
2022-08-17T12:57:37.941Z,99782.78
2022-08-17T13:00:30.499Z,99781.94
2022-08-17T13:03:03.326Z,99778.72
2022-08-17T13:05:55.156Z,99783.00
2022-08-17T13:08:32.127Z,99782.56
2022-08-17T13:11:01.280Z,99778.44
2022-08-17T13:13:31.288Z,99775.84
2022-08-17T13:16:09.465Z,99772.22
2022-08-17T13:18:41.982Z,99766.25
2022-08-17T13:21:22.283Z,99765.41
2022-08-17T13:24:10.746Z,99766.84
2022-08-17T13:26:46.108Z,99755.06
2022-08-17T13:29:51.169Z,99767.09
2022-08-17T13:32:33.409Z,99751.41
2022-08-17T13:35:14.363Z,99747.06
2022-08-17T13:37:56.590Z,99750.97
2022-08-17T13:40:22.981Z,99743.59
2022-08-17T13:42:54.527Z,99737.78
2022-08-17T13:45:35.456Z,99742.44
2022-08-17T13:48:08.680Z,99736.97
2022-08-17T13:50:40.718Z,99732.53
2022-08-17T13:53:27.595Z,99715.16
2022-08-17T13:55:58.257Z,99710.06
2022-08-17T13:58:37.157Z,99703.47
2022-08-17T14:01:41.905Z,99709.06
2022-08-17T14:04:14.501Z,99707.25
2022-08-17T14:07:01.448Z,99713.38
2022-08-17T14:09:38.458Z,99702.28
2022-08-17T14:12:21.601Z,99707.91
2022-08-17T14:14:49.597Z,99711.19
2022-08-17T14:17:16.062Z,99705.34
2022-08-17T14:19:42.512Z,99696.78
2022-08-17T14:22:18.172Z,99679.34
2022-08-17T14:24:45.223Z,99682.94
2022-08-17T14:27:17.592Z,99685.63
2022-08-17T14:29:44.513Z,99681.94
2022-08-17T14:32:21.981Z,99677.94
2022-08-17T14:34:49.652Z,99672.06
2022-08-17T14:37:21.217Z,99676.91
2022-08-17T14:39:48.721Z,99671.38
2022-08-17T14:42:15.522Z,99668.38
2022-08-17T14:44:42.003Z,99675.94
2022-08-17T14:47:13.727Z,99685.41
2022-08-17T14:49:40.298Z,99691.66
2022-08-17T14:52:06.777Z,99693.53
2022-08-17T14:54:34.607Z,99693.78
2022-08-17T14:57:23.262Z,99679.47
2022-08-17T14:59:54.509Z,99674.97
2022-08-17T15:02:30.679Z,99672.34
2022-08-17T15:05:04.204Z,99690.47
2022-08-17T15:07:31.650Z,99695.31
2022-08-17T15:10:00.595Z,99699.25
2022-08-17T15:12:32.227Z,99694.06
2022-08-17T15:15:00.832Z,99675.06
2022-08-17T15:17:27.487Z,99673.84
2022-08-17T15:20:18.022Z,99664.44
2022-08-17T15:22:45.905Z,99665.47
2022-08-17T15:25:13.902Z,99663.63
2022-08-17T15:27:41.383Z,99669.00
2022-08-17T15:30:09.877Z,99672.41
2022-08-17T15:32:39.322Z,99666.50
2022-08-17T15:35:07.853Z,99668.75
2022-08-17T15:37:36.314Z,99675.97
2022-08-17T15:40:03.834Z,99678.66
2022-08-17T15:42:30.351Z,99667.56
2022-08-17T15:44:57.030Z,99676.63
2022-08-17T15:47:24.368Z,99669.22
2022-08-17T15:49:50.938Z,99667.44
2022-08-17T15:52:24.104Z,99655.50
2022-08-17T15:54:56.186Z,99658.75
2022-08-17T15:57:25.660Z,99663.75
2022-08-17T15:59:58.949Z,99660.66
2022-08-17T16:03:14.084Z,99666.78
2022-08-17T16:05:24.992Z,99663.31
2022-08-17T16:07:52.230Z,99663.53
2022-08-17T16:10:19.516Z,99666.41
2022-08-17T16:12:50.176Z,99665.63
2022-08-17T16:15:17.384Z,99663.94
2022-08-17T16:17:43.854Z,99663.53
2022-08-17T16:20:20.626Z,99667.13
2022-08-17T16:22:49.149Z,99675.50
2022-08-17T16:25:19.473Z,99671.75
2022-08-17T16:27:49.142Z,99675.66
2022-08-17T16:30:17.597Z,99670.13
2022-08-17T16:32:45.339Z,99667.66
2022-08-17T16:35:17.240Z,99664.16
2022-08-17T16:37:45.619Z,99666.41
2022-08-17T16:40:15.207Z,99648.84
2022-08-17T16:42:43.164Z,99656.63
2022-08-17T16:45:14.609Z,99653.97
2022-08-17T16:47:41.925Z,99647.56
2022-08-17T16:50:11.665Z,99643.66
2022-08-17T16:52:40.327Z,99639.53
2022-08-17T16:55:09.356Z,99632.88
2022-08-17T16:57:47.595Z,99635.66
2022-08-17T17:00:18.242Z,99637.69
2022-08-17T17:02:47.379Z,99632.34
2022-08-17T17:05:22.534Z,99628.38
2022-08-17T17:08:01.001Z,99625.97
2022-08-17T17:10:44.382Z,99620.81
2022-08-17T17:13:32.867Z,99627.81
2022-08-17T17:16:17.120Z,99620.16
2022-08-17T17:19:04.314Z,99619.69
2022-08-17T17:21:43.561Z,99612.41
2022-08-17T17:24:15.346Z,99615.75
2022-08-17T17:26:55.140Z,99617.75
2022-08-17T17:29:47.289Z,99617.56
2022-08-17T17:32:21.599Z,99615.56
2022-08-17T17:34:53.990Z,99616.56
2022-08-17T17:37:27.214Z,99605.22
2022-08-17T17:39:58.721Z,99610.56
2022-08-17T17:42:31.376Z,99612.59
2022-08-17T17:45:31.183Z,99614.03
2022-08-17T17:47:57.704Z,99608.25
2022-08-17T17:50:43.296Z,99615.38
2022-08-17T17:53:35.188Z,99615.81
2022-08-17T17:56:43.007Z,99606.16
2022-08-17T17:59:27.616Z,99609.59
2022-08-17T18:02:07.624Z,99623.34
2022-08-17T18:05:00.871Z,99622.94
2022-08-17T18:07:40.863Z,99629.81
2022-08-17T18:10:30.073Z,99625.69
2022-08-17T18:13:32.624Z,99625.41
2022-08-17T18:16:00.969Z,99627.56
2022-08-17T18:18:37.735Z,99619.31
2022-08-17T18:21:19.175Z,99621.97
2022-08-17T18:23:54.678Z,99622.13
2022-08-17T18:26:45.023Z,99624.25
2022-08-17T18:29:35.779Z,99627.03
2022-08-17T18:32:15.340Z,99632.41
2022-08-17T18:34:47.531Z,99623.25
2022-08-17T18:37:31.941Z,99618.25
2022-08-17T18:39:58.587Z,99621.44
2022-08-17T18:42:27.427Z,99623.75
2022-08-17T18:44:55.587Z,99628.84
2022-08-17T18:47:25.088Z,99633.72
2022-08-17T18:49:58.185Z,99633.34
2022-08-17T18:52:32.645Z,99637.41
2022-08-17T18:55:22.111Z,99646.22
2022-08-17T18:57:54.876Z,99650.16
2022-08-17T19:00:41.774Z,99658.81
2022-08-17T19:03:20.403Z,99649.78
2022-08-17T19:05:52.285Z,99653.09
2022-08-17T19:08:24.456Z,99658.63
2022-08-17T19:10:55.648Z,99655.22
2022-08-17T19:13:36.829Z,99662.84
2022-08-17T19:16:17.445Z,99664.50
2022-08-17T19:18:48.469Z,99659.94
2022-08-17T19:21:40.264Z,99658.53
2022-08-17T19:24:06.722Z,99666.41
2022-08-17T19:26:54.309Z,99671.84
2022-08-17T19:29:32.154Z,99669.00
2022-08-17T19:32:01.607Z,99676.63
2022-08-17T19:34:34.082Z,99672.94
2022-08-17T19:37:13.017Z,99671.09
2022-08-17T19:39:55.185Z,99668.63
2022-08-17T19:42:31.421Z,99670.47
2022-08-17T19:45:15.770Z,99672.56
2022-08-17T19:48:20.025Z,99679.75
2022-08-17T19:50:58.861Z,99686.81
2022-08-17T19:53:54.052Z,99687.63
2022-08-17T19:56:35.580Z,99672.03
2022-08-17T19:59:21.964Z,99674.03
2022-08-17T20:02:03.005Z,99670.75
2022-08-17T20:04:31.884Z,99664.00
2022-08-17T20:07:26.496Z,99670.34
2022-08-17T20:10:04.874Z,99675.22
2022-08-17T20:12:36.414Z,99674.59
2022-08-17T20:15:13.856Z,99679.44
2022-08-17T20:17:44.937Z,99673.28
2022-08-17T20:21:05.360Z,99678.28
2022-08-17T20:23:45.126Z,99679.63
2022-08-17T20:26:18.920Z,99679.28
2022-08-17T20:29:13.744Z,99681.41
2022-08-17T20:31:55.202Z,99685.47
2022-08-17T20:34:36.797Z,99690.69
2022-08-17T20:37:13.135Z,99696.06
2022-08-17T20:39:52.618Z,99695.94
2022-08-17T20:42:22.102Z,99690.16
2022-08-17T20:44:52.333Z,99692.34
2022-08-17T20:48:00.927Z,99697.31
2022-08-17T20:50:39.237Z,99693.94
2022-08-17T20:53:09.201Z,99693.13
2022-08-17T20:55:35.803Z,99701.97
2022-08-17T20:58:24.683Z,99697.66
2022-08-17T21:00:57.172Z,99716.66
2022-08-17T21:03:23.699Z,99718.47
2022-08-17T21:06:00.412Z,99732.94
2022-08-17T21:08:55.159Z,99745.06
2022-08-17T21:12:02.654Z,99736.94
2022-08-17T21:14:28.650Z,99722.69
2022-08-17T21:17:41.917Z,99727.16
2022-08-17T21:20:25.265Z,99733.16
2022-08-17T21:23:25.621Z,99736.47
2022-08-17T21:26:17.411Z,99734.97
2022-08-17T21:29:00.041Z,99739.31
2022-08-17T21:31:27.847Z,99741.47
2022-08-17T21:34:14.817Z,99761.56
2022-08-17T21:36:43.165Z,99765.00
2022-08-17T21:39:14.962Z,99758.41
2022-08-17T21:41:48.303Z,99765.69
2022-08-17T21:44:17.501Z,99768.66
2022-08-17T21:46:47.326Z,99775.00
2022-08-17T21:49:17.705Z,99774.13
2022-08-17T21:51:50.946Z,99771.44
2022-08-17T21:54:30.853Z,99771.63
2022-08-17T21:57:01.386Z,99778.59
2022-08-17T21:59:34.623Z,99785.06
2022-08-17T22:02:07.367Z,99779.88
2022-08-17T22:04:39.606Z,99798.16
2022-08-17T22:07:10.116Z,99796.97
2022-08-17T22:09:50.024Z,99804.59
2022-08-17T22:12:19.640Z,99808.59
2022-08-17T22:14:56.111Z,99809.69
2022-08-17T22:17:26.147Z,99817.50
2022-08-17T22:19:54.891Z,99822.75
2022-08-17T22:22:26.297Z,99819.59
2022-08-17T22:24:59.557Z,99828.97
2022-08-17T22:27:46.654Z,99831.31
2022-08-17T22:30:18.640Z,99843.72
2022-08-17T22:32:49.203Z,99842.66
2022-08-17T22:35:31.366Z,99865.47
2022-08-17T22:38:20.639Z,99884.19
2022-08-17T22:40:50.910Z,99881.16
2022-08-17T22:43:28.617Z,99884.44
2022-08-17T22:45:58.908Z,99897.78
2022-08-17T22:48:28.053Z,99901.94
2022-08-17T22:51:30.909Z,99901.75
2022-08-17T22:54:31.208Z,99890.84
2022-08-17T22:57:22.703Z,99901.50
2022-08-17T22:59:52.858Z,99901.41
2022-08-17T23:02:21.676Z,99900.47
2022-08-17T23:05:12.978Z,99892.66
2022-08-17T23:07:42.391Z,99899.16
2022-08-17T23:10:10.946Z,99902.69
2022-08-17T23:12:39.577Z,99905.50
2022-08-17T23:15:14.223Z,99902.22
2022-08-17T23:17:42.022Z,99891.31
2022-08-17T23:20:12.284Z,99880.91
2022-08-17T23:22:51.952Z,99879.19
2022-08-17T23:25:26.345Z,99875.63
2022-08-17T23:27:53.091Z,99869.50
2022-08-17T23:30:20.082Z,99875.69
2022-08-17T23:32:53.595Z,99872.66
2022-08-17T23:35:20.840Z,99868.47
2022-08-17T23:38:07.605Z,99865.84
2022-08-17T23:40:34.193Z,99867.66
2022-08-17T23:43:00.675Z,99867.91
2022-08-17T23:45:31.062Z,99874.47
2022-08-17T23:47:57.765Z,99871.72
2022-08-17T23:50:25.038Z,99883.47
2022-08-17T23:52:57.575Z,99876.63
2022-08-17T23:55:24.025Z,99872.97
2022-08-17T23:57:50.703Z,99873.53
